sensor_id;sensor_type;location;lat;lon;timestamp;P1;durP1;ratioP1;P2;durP2;ratioP2
50709;SDS011;37033;49.994;21.992;2023-12-20T00:02:09;31.30;;;17.10;;
50709;SDS011;37033;49.994;21.992;2023-12-20T00:04:40;31.70;;;17.80;;
50709;SDS011;37033;49.994;21.992;2023-12-20T00:07:11;34.20;;;17.00;;
50709;SDS011;37033;49.994;21.992;2023-12-20T00:09:42;29.40;;;16.40;;
50709;SDS011;37033;49.994;21.992;2023-12-20T00:12:13;35.20;;;16.50;;
50709;SDS011;37033;49.994;21.992;2023-12-20T00:14:43;31.00;;;16.50;;
50709;SDS011;37033;49.994;21.992;2023-12-20T00:17:15;32.70;;;18.60;;
50709;SDS011;37033;49.994;21.992;2023-12-20T00:19:45;39.00;;;19.00;;
50709;SDS011;37033;49.994;21.992;2023-12-20T00:22:16;29.30;;;16.50;;
50709;SDS011;37033;49.994;21.992;2023-12-20T00:24:47;34.00;;;18.70;;
50709;SDS011;37033;49.994;21.992;2023-12-20T00:27:18;37.70;;;17.90;;
50709;SDS011;37033;49.994;21.992;2023-12-20T00:29:49;29.90;;;16.70;;
50709;SDS011;37033;49.994;21.992;2023-12-20T00:32:20;35.30;;;17.40;;
50709;SDS011;37033;49.994;21.992;2023-12-20T00:34:50;33.10;;;16.40;;
50709;SDS011;37033;49.994;21.992;2023-12-20T00:37:21;31.80;;;16.50;;
50709;SDS011;37033;49.994;21.992;2023-12-20T00:39:52;30.90;;;15.90;;
50709;SDS011;37033;49.994;21.992;2023-12-20T00:42:23;28.80;;;15.80;;
50709;SDS011;37033;49.994;21.992;2023-12-20T00:44:54;34.70;;;17.30;;
50709;SDS011;37033;49.994;21.992;2023-12-20T00:47:26;30.50;;;16.10;;
50709;SDS011;37033;49.994;21.992;2023-12-20T00:49:57;27.70;;;14.90;;
50709;SDS011;37033;49.994;21.992;2023-12-20T00:52:27;28.50;;;15.90;;
50709;SDS011;37033;49.994;21.992;2023-12-20T00:54:58;27.70;;;15.10;;
50709;SDS011;37033;49.994;21.992;2023-12-20T00:57:29;34.00;;;17.90;;
50709;SDS011;37033;49.994;21.992;2023-12-20T01:00:00;32.80;;;16.60;;
50709;SDS011;37033;49.994;21.992;2023-12-20T01:02:31;30.00;;;15.70;;
50709;SDS011;37033;49.994;21.992;2023-12-20T01:05:02;31.90;;;16.30;;
50709;SDS011;37033;49.994;21.992;2023-12-20T01:07:35;24.70;;;14.30;;
50709;SDS011;37033;49.994;21.992;2023-12-20T01:10:06;30.00;;;15.10;;
50709;SDS011;37033;49.994;21.992;2023-12-20T01:12:37;27.60;;;15.00;;
50709;SDS011;37033;49.994;21.992;2023-12-20T01:15:09;31.20;;;16.20;;
50709;SDS011;37033;49.994;21.992;2023-12-20T01:17:40;23.70;;;13.80;;
50709;SDS011;37033;49.994;21.992;2023-12-20T01:20:11;24.80;;;13.50;;
50709;SDS011;37033;49.994;21.992;2023-12-20T01:22:42;24.60;;;14.40;;
50709;SDS011;37033;49.994;21.992;2023-12-20T01:25:13;25.90;;;13.90;;
50709;SDS011;37033;49.994;21.992;2023-12-20T01:27:44;28.30;;;14.30;;
50709;SDS011;37033;49.994;21.992;2023-12-20T01:30:16;26.10;;;14.70;;
50709;SDS011;37033;49.994;21.992;2023-12-20T01:32:46;32.70;;;15.60;;
50709;SDS011;37033;49.994;21.992;2023-12-20T01:35:17;30.00;;;15.90;;
50709;SDS011;37033;49.994;21.992;2023-12-20T01:37:48;26.00;;;13.70;;
50709;SDS011;37033;49.994;21.992;2023-12-20T01:40:19;26.10;;;14.50;;
50709;SDS011;37033;49.994;21.992;2023-12-20T01:42:58;30.10;;;15.10;;
50709;SDS011;37033;49.994;21.992;2023-12-20T01:45:30;27.30;;;14.40;;
50709;SDS011;37033;49.994;21.992;2023-12-20T01:48:01;26.50;;;14.40;;
50709;SDS011;37033;49.994;21.992;2023-12-20T01:50:34;24.90;;;14.00;;
50709;SDS011;37033;49.994;21.992;2023-12-20T01:53:07;26.90;;;15.30;;
50709;SDS011;37033;49.994;21.992;2023-12-20T01:55:39;27.80;;;15.20;;
50709;SDS011;37033;49.994;21.992;2023-12-20T01:58:11;26.00;;;14.60;;
50709;SDS011;37033;49.994;21.992;2023-12-20T02:00:43;27.00;;;15.70;;
50709;SDS011;37033;49.994;21.992;2023-12-20T02:03:15;27.00;;;13.70;;
50709;SDS011;37033;49.994;21.992;2023-12-20T02:05:47;30.10;;;14.40;;
50709;SDS011;37033;49.994;21.992;2023-12-20T02:08:19;22.90;;;13.60;;
50709;SDS011;37033;49.994;21.992;2023-12-20T02:10:50;28.50;;;14.10;;
50709;SDS011;37033;49.994;21.992;2023-12-20T02:13:21;31.30;;;14.20;;
50709;SDS011;37033;49.994;21.992;2023-12-20T02:15:52;26.00;;;13.90;;
50709;SDS011;37033;49.994;21.992;2023-12-20T02:18:23;25.40;;;13.50;;
50709;SDS011;37033;49.994;21.992;2023-12-20T02:20:54;31.80;;;15.00;;
50709;SDS011;37033;49.994;21.992;2023-12-20T02:23:25;30.20;;;14.90;;
50709;SDS011;37033;49.994;21.992;2023-12-20T02:25:56;32.70;;;15.80;;
50709;SDS011;37033;49.994;21.992;2023-12-20T02:28:26;31.30;;;15.30;;
50709;SDS011;37033;49.994;21.992;2023-12-20T02:30:58;27.20;;;14.50;;
50709;SDS011;37033;49.994;21.992;2023-12-20T02:33:29;24.20;;;13.60;;
50709;SDS011;37033;49.994;21.992;2023-12-20T02:36:00;30.70;;;15.00;;
50709;SDS011;37033;49.994;21.992;2023-12-20T02:38:31;27.60;;;14.60;;
50709;SDS011;37033;49.994;21.992;2023-12-20T02:41:02;27.10;;;14.90;;
50709;SDS011;37033;49.994;21.992;2023-12-20T02:43:33;29.00;;;15.70;;
50709;SDS011;37033;49.994;21.992;2023-12-20T02:46:04;29.90;;;14.60;;
50709;SDS011;37033;49.994;21.992;2023-12-20T02:48:35;26.70;;;14.20;;
50709;SDS011;37033;49.994;21.992;2023-12-20T02:51:05;29.50;;;16.00;;
50709;SDS011;37033;49.994;21.992;2023-12-20T02:53:36;24.80;;;13.50;;
50709;SDS011;37033;49.994;21.992;2023-12-20T02:56:07;31.20;;;15.60;;
50709;SDS011;37033;49.994;21.992;2023-12-20T02:58:38;28.00;;;14.30;;
50709;SDS011;37033;49.994;21.992;2023-12-20T03:01:09;28.80;;;15.70;;
50709;SDS011;37033;49.994;21.992;2023-12-20T03:03:40;24.90;;;14.30;;
50709;SDS011;37033;49.994;21.992;2023-12-20T03:06:11;28.90;;;15.10;;
50709;SDS011;37033;49.994;21.992;2023-12-20T03:08:44;32.00;;;15.20;;
50709;SDS011;37033;49.994;21.992;2023-12-20T03:11:15;29.30;;;15.80;;
50709;SDS011;37033;49.994;21.992;2023-12-20T03:13:46;31.00;;;15.50;;
50709;SDS011;37033;49.994;21.992;2023-12-20T03:16:17;25.60;;;14.70;;
50709;SDS011;37033;49.994;21.992;2023-12-20T03:18:48;27.60;;;15.10;;
50709;SDS011;37033;49.994;21.992;2023-12-20T03:21:19;29.50;;;15.20;;
50709;SDS011;37033;49.994;21.992;2023-12-20T03:23:50;30.00;;;16.00;;
50709;SDS011;37033;49.994;21.992;2023-12-20T03:26:22;32.40;;;16.20;;
50709;SDS011;37033;49.994;21.992;2023-12-20T03:28:53;29.90;;;16.50;;
50709;SDS011;37033;49.994;21.992;2023-12-20T03:31:24;28.60;;;15.70;;
50709;SDS011;37033;49.994;21.992;2023-12-20T03:33:54;30.00;;;16.40;;
50709;SDS011;37033;49.994;21.992;2023-12-20T03:36:25;30.80;;;15.80;;
50709;SDS011;37033;49.994;21.992;2023-12-20T03:38:56;27.60;;;13.90;;
50709;SDS011;37033;49.994;21.992;2023-12-20T03:41:27;27.90;;;14.70;;
50709;SDS011;37033;49.994;21.992;2023-12-20T03:43:57;27.30;;;14.10;;
50709;SDS011;37033;49.994;21.992;2023-12-20T03:46:28;26.60;;;14.40;;
50709;SDS011;37033;49.994;21.992;2023-12-20T03:48:59;25.20;;;14.20;;
50709;SDS011;37033;49.994;21.992;2023-12-20T03:51:30;28.90;;;13.80;;
50709;SDS011;37033;49.994;21.992;2023-12-20T03:54:00;28.80;;;14.60;;
50709;SDS011;37033;49.994;21.992;2023-12-20T03:56:32;29.10;;;14.50;;
50709;SDS011;37033;49.994;21.992;2023-12-20T03:59:02;26.00;;;14.00;;
50709;SDS011;37033;49.994;21.992;2023-12-20T04:01:33;28.60;;;12.90;;
50709;SDS011;37033;49.994;21.992;2023-12-20T04:04:04;27.20;;;14.00;;
50709;SDS011;37033;49.994;21.992;2023-12-20T04:06:35;32.70;;;14.60;;
50709;SDS011;37033;49.994;21.992;2023-12-20T04:09:06;28.70;;;15.10;;
50709;SDS011;37033;49.994;21.992;2023-12-20T04:11:38;30.40;;;14.50;;
50709;SDS011;37033;49.994;21.992;2023-12-20T04:14:08;25.20;;;13.90;;
50709;SDS011;37033;49.994;21.992;2023-12-20T04:16:40;24.20;;;14.10;;
50709;SDS011;37033;49.994;21.992;2023-12-20T04:19:10;26.00;;;15.20;;
50709;SDS011;37033;49.994;21.992;2023-12-20T04:21:41;24.10;;;13.30;;
50709;SDS011;37033;49.994;21.992;2023-12-20T04:24:12;23.30;;;12.40;;
50709;SDS011;37033;49.994;21.992;2023-12-20T04:26:43;25.10;;;13.70;;
50709;SDS011;37033;49.994;21.992;2023-12-20T04:29:14;24.70;;;13.80;;
50709;SDS011;37033;49.994;21.992;2023-12-20T04:31:44;29.60;;;14.00;;
50709;SDS011;37033;49.994;21.992;2023-12-20T04:34:15;27.10;;;14.40;;
50709;SDS011;37033;49.994;21.992;2023-12-20T04:36:46;28.80;;;15.20;;
50709;SDS011;37033;49.994;21.992;2023-12-20T04:39:17;27.70;;;13.70;;
50709;SDS011;37033;49.994;21.992;2023-12-20T04:41:48;27.00;;;14.60;;
50709;SDS011;37033;49.994;21.992;2023-12-20T04:44:19;31.80;;;15.10;;
50709;SDS011;37033;49.994;21.992;2023-12-20T04:46:49;29.80;;;15.30;;
50709;SDS011;37033;49.994;21.992;2023-12-20T04:49:20;28.70;;;14.10;;
50709;SDS011;37033;49.994;21.992;2023-12-20T04:51:51;37.10;;;19.50;;
50709;SDS011;37033;49.994;21.992;2023-12-20T04:54:22;30.10;;;15.90;;
50709;SDS011;37033;49.994;21.992;2023-12-20T04:56:53;28.70;;;14.20;;
50709;SDS011;37033;49.994;21.992;2023-12-20T04:59:24;31.00;;;15.00;;
50709;SDS011;37033;49.994;21.992;2023-12-20T05:01:55;28.10;;;15.20;;
50709;SDS011;37033;49.994;21.992;2023-12-20T05:04:26;30.50;;;15.10;;
50709;SDS011;37033;49.994;21.992;2023-12-20T05:06:57;30.90;;;15.00;;
50709;SDS011;37033;49.994;21.992;2023-12-20T05:09:28;30.70;;;16.50;;
50709;SDS011;37033;49.994;21.992;2023-12-20T05:11:59;25.90;;;14.70;;
50709;SDS011;37033;49.994;21.992;2023-12-20T05:14:30;26.90;;;14.30;;
50709;SDS011;37033;49.994;21.992;2023-12-20T05:17:00;32.00;;;15.80;;
50709;SDS011;37033;49.994;21.992;2023-12-20T05:19:31;29.70;;;14.00;;
50709;SDS011;37033;49.994;21.992;2023-12-20T05:22:03;27.20;;;14.20;;
50709;SDS011;37033;49.994;21.992;2023-12-20T05:24:34;30.50;;;14.40;;
50709;SDS011;37033;49.994;21.992;2023-12-20T05:27:05;26.00;;;13.40;;
50709;SDS011;37033;49.994;21.992;2023-12-20T05:29:36;28.30;;;15.50;;
50709;SDS011;37033;49.994;21.992;2023-12-20T05:32:07;24.80;;;13.90;;
50709;SDS011;37033;49.994;21.992;2023-12-20T05:34:39;28.80;;;13.90;;
50709;SDS011;37033;49.994;21.992;2023-12-20T05:37:10;28.20;;;14.70;;
50709;SDS011;37033;49.994;21.992;2023-12-20T05:39:40;24.80;;;13.30;;
50709;SDS011;37033;49.994;21.992;2023-12-20T05:42:11;22.50;;;13.70;;
50709;SDS011;37033;49.994;21.992;2023-12-20T05:44:42;24.10;;;12.90;;
50709;SDS011;37033;49.994;21.992;2023-12-20T05:47:12;25.60;;;13.60;;
50709;SDS011;37033;49.994;21.992;2023-12-20T05:49:43;29.40;;;13.20;;
50709;SDS011;37033;49.994;21.992;2023-12-20T05:52:14;24.70;;;13.90;;
50709;SDS011;37033;49.994;21.992;2023-12-20T05:54:45;23.50;;;12.70;;
50709;SDS011;37033;49.994;21.992;2023-12-20T05:57:16;29.10;;;14.50;;
50709;SDS011;37033;49.994;21.992;2023-12-20T05:59:46;29.40;;;14.20;;
50709;SDS011;37033;49.994;21.992;2023-12-20T06:02:17;24.60;;;13.60;;
50709;SDS011;37033;49.994;21.992;2023-12-20T06:04:48;29.00;;;13.80;;
50709;SDS011;37033;49.994;21.992;2023-12-20T06:07:19;26.70;;;14.20;;
50709;SDS011;37033;49.994;21.992;2023-12-20T06:09:50;26.20;;;14.70;;
50709;SDS011;37033;49.994;21.992;2023-12-20T06:12:21;21.70;;;13.10;;
50709;SDS011;37033;49.994;21.992;2023-12-20T06:14:52;26.80;;;13.90;;
50709;SDS011;37033;49.994;21.992;2023-12-20T06:17:22;26.00;;;14.00;;
50709;SDS011;37033;49.994;21.992;2023-12-20T06:19:53;25.50;;;13.20;;
50709;SDS011;37033;49.994;21.992;2023-12-20T06:22:24;24.20;;;12.70;;
50709;SDS011;37033;49.994;21.992;2023-12-20T06:24:55;27.90;;;14.60;;
50709;SDS011;37033;49.994;21.992;2023-12-20T06:27:25;22.70;;;12.50;;
50709;SDS011;37033;49.994;21.992;2023-12-20T06:29:56;28.40;;;14.60;;
50709;SDS011;37033;49.994;21.992;2023-12-20T06:32:27;24.50;;;14.10;;
50709;SDS011;37033;49.994;21.992;2023-12-20T06:34:58;24.60;;;13.20;;
50709;SDS011;37033;49.994;21.992;2023-12-20T06:37:29;23.60;;;13.20;;
50709;SDS011;37033;49.994;21.992;2023-12-20T06:40:00;22.40;;;12.70;;
50709;SDS011;37033;49.994;21.992;2023-12-20T06:42:32;20.30;;;11.70;;
50709;SDS011;37033;49.994;21.992;2023-12-20T06:45:03;27.90;;;12.90;;
50709;SDS011;37033;49.994;21.992;2023-12-20T06:47:35;24.60;;;12.70;;
50709;SDS011;37033;49.994;21.992;2023-12-20T06:50:06;28.00;;;14.00;;
50709;SDS011;37033;49.994;21.992;2023-12-20T06:52:37;23.60;;;12.90;;
50709;SDS011;37033;49.994;21.992;2023-12-20T06:55:08;23.80;;;12.60;;
50709;SDS011;37033;49.994;21.992;2023-12-20T06:57:39;22.00;;;12.10;;
50709;SDS011;37033;49.994;21.992;2023-12-20T07:00:11;24.50;;;12.30;;
50709;SDS011;37033;49.994;21.992;2023-12-20T07:02:43;19.90;;;11.00;;
50709;SDS011;37033;49.994;21.992;2023-12-20T07:05:17;26.20;;;13.30;;
50709;SDS011;37033;49.994;21.992;2023-12-20T07:07:48;23.00;;;13.00;;
50709;SDS011;37033;49.994;21.992;2023-12-20T07:10:19;22.80;;;12.40;;
50709;SDS011;37033;49.994;21.992;2023-12-20T07:12:50;25.20;;;13.70;;
50709;SDS011;37033;49.994;21.992;2023-12-20T07:15:22;23.70;;;13.30;;
50709;SDS011;37033;49.994;21.992;2023-12-20T07:17:54;22.30;;;11.80;;
50709;SDS011;37033;49.994;21.992;2023-12-20T07:20:28;24.70;;;12.50;;
50709;SDS011;37033;49.994;21.992;2023-12-20T07:22:59;20.90;;;12.10;;
50709;SDS011;37033;49.994;21.992;2023-12-20T07:25:30;21.00;;;12.30;;
50709;SDS011;37033;49.994;21.992;2023-12-20T07:28:01;21.80;;;11.50;;
50709;SDS011;37033;49.994;21.992;2023-12-20T07:30:32;21.80;;;12.90;;
50709;SDS011;37033;49.994;21.992;2023-12-20T07:33:03;25.90;;;13.40;;
50709;SDS011;37033;49.994;21.992;2023-12-20T07:35:36;30.30;;;14.30;;
50709;SDS011;37033;49.994;21.992;2023-12-20T07:38:07;24.50;;;13.10;;
50709;SDS011;37033;49.994;21.992;2023-12-20T07:40:38;24.50;;;14.20;;
50709;SDS011;37033;49.994;21.992;2023-12-20T07:43:08;21.70;;;12.40;;
50709;SDS011;37033;49.994;21.992;2023-12-20T07:45:39;26.60;;;13.90;;
50709;SDS011;37033;49.994;21.992;2023-12-20T07:48:10;27.30;;;13.10;;
50709;SDS011;37033;49.994;21.992;2023-12-20T07:50:41;29.70;;;15.10;;
50709;SDS011;37033;49.994;21.992;2023-12-20T07:53:12;22.80;;;13.10;;
50709;SDS011;37033;49.994;21.992;2023-12-20T07:55:43;26.70;;;13.70;;
50709;SDS011;37033;49.994;21.992;2023-12-20T07:58:14;21.70;;;11.80;;
50709;SDS011;37033;49.994;21.992;2023-12-20T08:00:45;24.80;;;12.40;;
50709;SDS011;37033;49.994;21.992;2023-12-20T08:03:16;24.60;;;13.50;;
50709;SDS011;37033;49.994;21.992;2023-12-20T08:05:46;21.40;;;13.10;;
50709;SDS011;37033;49.994;21.992;2023-12-20T08:08:17;36.10;;;14.50;;
50709;SDS011;37033;49.994;21.992;2023-12-20T08:10:48;30.50;;;13.90;;
50709;SDS011;37033;49.994;21.992;2023-12-20T08:13:18;29.90;;;14.40;;
50709;SDS011;37033;49.994;21.992;2023-12-20T08:15:52;27.60;;;14.00;;
50709;SDS011;37033;49.994;21.992;2023-12-20T08:18:24;23.70;;;13.90;;
50709;SDS011;37033;49.994;21.992;2023-12-20T08:20:55;29.20;;;13.50;;
50709;SDS011;37033;49.994;21.992;2023-12-20T08:23:26;32.10;;;14.40;;
50709;SDS011;37033;49.994;21.992;2023-12-20T08:25:56;23.20;;;13.70;;
50709;SDS011;37033;49.994;21.992;2023-12-20T08:28:27;21.70;;;12.60;;
50709;SDS011;37033;49.994;21.992;2023-12-20T08:30:59;24.50;;;12.50;;
50709;SDS011;37033;49.994;21.992;2023-12-20T08:33:29;24.10;;;13.30;;
50709;SDS011;37033;49.994;21.992;2023-12-20T08:36:00;23.90;;;13.30;;
50709;SDS011;37033;49.994;21.992;2023-12-20T08:38:51;24.50;;;13.70;;
50709;SDS011;37033;49.994;21.992;2023-12-20T08:41:23;23.40;;;13.20;;
50709;SDS011;37033;49.994;21.992;2023-12-20T08:43:53;24.20;;;13.20;;
50709;SDS011;37033;49.994;21.992;2023-12-20T08:46:24;28.20;;;15.40;;
50709;SDS011;37033;49.994;21.992;2023-12-20T08:48:55;22.20;;;13.10;;
50709;SDS011;37033;49.994;21.992;2023-12-20T08:51:26;22.70;;;13.30;;
50709;SDS011;37033;49.994;21.992;2023-12-20T08:53:57;25.00;;;13.00;;
50709;SDS011;37033;49.994;21.992;2023-12-20T08:56:27;24.30;;;13.20;;
50709;SDS011;37033;49.994;21.992;2023-12-20T08:58:58;27.50;;;14.10;;
50709;SDS011;37033;49.994;21.992;2023-12-20T09:01:29;28.10;;;14.00;;
50709;SDS011;37033;49.994;21.992;2023-12-20T09:03:59;31.20;;;14.60;;
50709;SDS011;37033;49.994;21.992;2023-12-20T09:06:30;24.70;;;12.90;;
50709;SDS011;37033;49.994;21.992;2023-12-20T09:09:01;27.60;;;14.60;;
50709;SDS011;37033;49.994;21.992;2023-12-20T09:11:32;26.70;;;14.50;;
50709;SDS011;37033;49.994;21.992;2023-12-20T09:14:03;22.80;;;12.40;;
50709;SDS011;37033;49.994;21.992;2023-12-20T09:16:33;28.40;;;14.90;;
50709;SDS011;37033;49.994;21.992;2023-12-20T09:19:04;26.70;;;13.70;;
50709;SDS011;37033;49.994;21.992;2023-12-20T09:21:35;24.20;;;13.40;;
50709;SDS011;37033;49.994;21.992;2023-12-20T09:24:06;25.50;;;14.20;;
50709;SDS011;37033;49.994;21.992;2023-12-20T09:26:37;27.90;;;14.80;;
50709;SDS011;37033;49.994;21.992;2023-12-20T09:29:10;28.70;;;15.20;;
50709;SDS011;37033;49.994;21.992;2023-12-20T09:31:43;31.20;;;15.10;;
50709;SDS011;37033;49.994;21.992;2023-12-20T09:34:15;30.10;;;16.00;;
50709;SDS011;37033;49.994;21.992;2023-12-20T09:36:45;29.50;;;15.10;;
50709;SDS011;37033;49.994;21.992;2023-12-20T09:39:17;30.60;;;16.40;;
50709;SDS011;37033;49.994;21.992;2023-12-20T09:41:51;35.40;;;16.40;;
50709;SDS011;37033;49.994;21.992;2023-12-20T09:44:29;30.70;;;15.70;;
50709;SDS011;37033;49.994;21.992;2023-12-20T09:47:03;29.90;;;15.70;;
50709;SDS011;37033;49.994;21.992;2023-12-20T09:49:35;31.50;;;16.30;;
50709;SDS011;37033;49.994;21.992;2023-12-20T09:52:07;25.10;;;13.70;;
50709;SDS011;37033;49.994;21.992;2023-12-20T09:54:39;29.60;;;15.00;;
50709;SDS011;37033;49.994;21.992;2023-12-20T09:57:10;30.50;;;15.60;;
50709;SDS011;37033;49.994;21.992;2023-12-20T09:59:41;28.50;;;14.10;;
50709;SDS011;37033;49.994;21.992;2023-12-20T10:02:12;24.60;;;14.90;;
50709;SDS011;37033;49.994;21.992;2023-12-20T10:04:47;28.30;;;15.80;;
50709;SDS011;37033;49.994;21.992;2023-12-20T10:07:18;28.10;;;15.50;;
50709;SDS011;37033;49.994;21.992;2023-12-20T10:09:49;38.30;;;15.40;;
50709;SDS011;37033;49.994;21.992;2023-12-20T10:12:22;29.00;;;16.10;;
50709;SDS011;37033;49.994;21.992;2023-12-20T10:14:53;28.70;;;16.10;;
50709;SDS011;37033;49.994;21.992;2023-12-20T10:17:24;26.50;;;14.80;;
50709;SDS011;37033;49.994;21.992;2023-12-20T10:19:56;26.50;;;14.10;;
50709;SDS011;37033;49.994;21.992;2023-12-20T10:22:27;32.40;;;15.70;;
50709;SDS011;37033;49.994;21.992;2023-12-20T10:24:58;24.00;;;13.60;;
50709;SDS011;37033;49.994;21.992;2023-12-20T10:27:30;26.30;;;14.10;;
50709;SDS011;37033;49.994;21.992;2023-12-20T10:30:01;27.90;;;13.80;;
50709;SDS011;37033;49.994;21.992;2023-12-20T10:32:33;32.70;;;14.60;;
50709;SDS011;37033;49.994;21.992;2023-12-20T10:35:05;28.30;;;14.20;;
50709;SDS011;37033;49.994;21.992;2023-12-20T10:37:37;26.50;;;14.70;;
50709;SDS011;37033;49.994;21.992;2023-12-20T10:40:10;26.80;;;13.70;;
50709;SDS011;37033;49.994;21.992;2023-12-20T10:42:42;30.20;;;15.40;;
50709;SDS011;37033;49.994;21.992;2023-12-20T10:45:13;32.90;;;14.30;;
50709;SDS011;37033;49.994;21.992;2023-12-20T10:47:45;32.70;;;15.70;;
50709;SDS011;37033;49.994;21.992;2023-12-20T10:50:19;32.60;;;15.80;;
50709;SDS011;37033;49.994;21.992;2023-12-20T10:52:50;34.60;;;17.10;;
50709;SDS011;37033;49.994;21.992;2023-12-20T10:55:23;43.40;;;18.70;;
50709;SDS011;37033;49.994;21.992;2023-12-20T10:57:58;36.20;;;16.90;;
50709;SDS011;37033;49.994;21.992;2023-12-20T11:00:31;30.30;;;15.00;;
50709;SDS011;37033;49.994;21.992;2023-12-20T11:03:06;31.90;;;14.60;;
50709;SDS011;37033;49.994;21.992;2023-12-20T11:05:43;26.10;;;14.30;;
50709;SDS011;37033;49.994;21.992;2023-12-20T11:08:22;26.10;;;13.70;;
50709;SDS011;37033;49.994;21.992;2023-12-20T11:11:02;28.70;;;15.00;;
50709;SDS011;37033;49.994;21.992;2023-12-20T11:13:37;26.70;;;13.30;;
50709;SDS011;37033;49.994;21.992;2023-12-20T11:16:17;22.00;;;12.10;;
50709;SDS011;37033;49.994;21.992;2023-12-20T11:18:47;24.90;;;12.80;;
50709;SDS011;37033;49.994;21.992;2023-12-20T11:21:21;24.40;;;13.00;;
50709;SDS011;37033;49.994;21.992;2023-12-20T11:23:53;28.20;;;13.50;;
50709;SDS011;37033;49.994;21.992;2023-12-20T11:26:24;26.00;;;13.60;;
50709;SDS011;37033;49.994;21.992;2023-12-20T11:29:03;27.70;;;14.60;;
50709;SDS011;37033;49.994;21.992;2023-12-20T11:32:02;24.70;;;13.90;;
50709;SDS011;37033;49.994;21.992;2023-12-20T11:34:55;29.20;;;15.30;;
50709;SDS011;37033;49.994;21.992;2023-12-20T11:37:31;30.10;;;15.70;;
50709;SDS011;37033;49.994;21.992;2023-12-20T11:40:06;26.00;;;13.80;;
50709;SDS011;37033;49.994;21.992;2023-12-20T11:42:42;38.30;;;18.50;;
50709;SDS011;37033;49.994;21.992;2023-12-20T11:45:14;35.30;;;17.50;;
50709;SDS011;37033;49.994;21.992;2023-12-20T11:47:47;29.10;;;15.00;;
50709;SDS011;37033;49.994;21.992;2023-12-20T11:50:20;27.20;;;14.90;;
50709;SDS011;37033;49.994;21.992;2023-12-20T11:52:52;25.60;;;12.80;;
50709;SDS011;37033;49.994;21.992;2023-12-20T11:55:24;28.60;;;14.30;;
50709;SDS011;37033;49.994;21.992;2023-12-20T11:57:54;30.10;;;15.30;;
50709;SDS011;37033;49.994;21.992;2023-12-20T12:00:26;24.80;;;13.90;;
50709;SDS011;37033;49.994;21.992;2023-12-20T12:02:58;25.70;;;13.90;;
50709;SDS011;37033;49.994;21.992;2023-12-20T12:05:32;22.80;;;13.30;;
50709;SDS011;37033;49.994;21.992;2023-12-20T12:08:04;25.50;;;13.90;;
50709;SDS011;37033;49.994;21.992;2023-12-20T12:10:35;24.90;;;13.30;;
50709;SDS011;37033;49.994;21.992;2023-12-20T12:13:06;21.70;;;13.90;;
50709;SDS011;37033;49.994;21.992;2023-12-20T12:15:38;28.80;;;14.90;;
50709;SDS011;37033;49.994;21.992;2023-12-20T12:18:10;30.70;;;16.30;;
50709;SDS011;37033;49.994;21.992;2023-12-20T12:20:44;28.30;;;14.90;;
50709;SDS011;37033;49.994;21.992;2023-12-20T12:23:14;27.90;;;15.10;;
50709;SDS011;37033;49.994;21.992;2023-12-20T12:25:53;26.70;;;14.00;;
50709;SDS011;37033;49.994;21.992;2023-12-20T12:28:26;26.50;;;13.90;;
50709;SDS011;37033;49.994;21.992;2023-12-20T12:30:59;28.30;;;14.60;;
50709;SDS011;37033;49.994;21.992;2023-12-20T12:33:30;29.90;;;16.00;;
50709;SDS011;37033;49.994;21.992;2023-12-20T12:36:01;32.10;;;16.10;;
50709;SDS011;37033;49.994;21.992;2023-12-20T12:38:34;23.50;;;14.10;;
50709;SDS011;37033;49.994;21.992;2023-12-20T12:41:05;25.10;;;14.80;;
50709;SDS011;37033;49.994;21.992;2023-12-20T12:43:37;26.80;;;14.70;;
50709;SDS011;37033;49.994;21.992;2023-12-20T12:46:09;26.60;;;15.20;;
50709;SDS011;37033;49.994;21.992;2023-12-20T12:48:40;30.60;;;16.70;;
50709;SDS011;37033;49.994;21.992;2023-12-20T12:51:11;32.80;;;18.10;;
50709;SDS011;37033;49.994;21.992;2023-12-20T12:53:42;35.30;;;17.90;;
50709;SDS011;37033;49.994;21.992;2023-12-20T12:56:13;41.70;;;21.70;;
50709;SDS011;37033;49.994;21.992;2023-12-20T12:58:44;36.90;;;19.30;;
50709;SDS011;37033;49.994;21.992;2023-12-20T13:01:15;48.00;;;25.10;;
50709;SDS011;37033;49.994;21.992;2023-12-20T13:03:46;40.50;;;21.90;;
50709;SDS011;37033;49.994;21.992;2023-12-20T13:06:16;37.70;;;20.00;;
50709;SDS011;37033;49.994;21.992;2023-12-20T13:08:47;34.50;;;18.00;;
50709;SDS011;37033;49.994;21.992;2023-12-20T13:11:18;31.50;;;18.10;;
50709;SDS011;37033;49.994;21.992;2023-12-20T13:13:49;33.90;;;18.10;;
50709;SDS011;37033;49.994;21.992;2023-12-20T13:16:19;30.40;;;16.10;;
50709;SDS011;37033;49.994;21.992;2023-12-20T13:18:50;31.10;;;17.60;;
50709;SDS011;37033;49.994;21.992;2023-12-20T13:21:21;30.20;;;16.10;;
50709;SDS011;37033;49.994;21.992;2023-12-20T13:23:52;34.70;;;17.70;;
50709;SDS011;37033;49.994;21.992;2023-12-20T13:26:22;30.00;;;16.40;;
50709;SDS011;37033;49.994;21.992;2023-12-20T13:28:54;32.60;;;17.30;;
50709;SDS011;37033;49.994;21.992;2023-12-20T13:31:27;36.00;;;18.70;;
50709;SDS011;37033;49.994;21.992;2023-12-20T13:33:58;33.40;;;17.00;;
50709;SDS011;37033;49.994;21.992;2023-12-20T13:36:29;37.80;;;19.10;;
50709;SDS011;37033;49.994;21.992;2023-12-20T13:39:00;36.10;;;19.50;;
50709;SDS011;37033;49.994;21.992;2023-12-20T13:41:32;38.70;;;18.70;;
50709;SDS011;37033;49.994;21.992;2023-12-20T13:44:03;35.00;;;18.30;;
50709;SDS011;37033;49.994;21.992;2023-12-20T13:46:34;37.00;;;18.30;;
50709;SDS011;37033;49.994;21.992;2023-12-20T13:49:05;39.90;;;20.10;;
50709;SDS011;37033;49.994;21.992;2023-12-20T13:51:35;49.70;;;22.80;;
50709;SDS011;37033;49.994;21.992;2023-12-20T13:54:06;45.10;;;21.50;;
50709;SDS011;37033;49.994;21.992;2023-12-20T13:56:38;52.00;;;24.20;;
50709;SDS011;37033;49.994;21.992;2023-12-20T13:59:09;49.10;;;23.30;;
50709;SDS011;37033;49.994;21.992;2023-12-20T14:01:40;45.00;;;22.70;;
50709;SDS011;37033;49.994;21.992;2023-12-20T14:04:11;39.10;;;21.00;;
50709;SDS011;37033;49.994;21.992;2023-12-20T14:06:41;36.90;;;18.00;;
50709;SDS011;37033;49.994;21.992;2023-12-20T14:09:12;36.70;;;19.50;;
50709;SDS011;37033;49.994;21.992;2023-12-20T14:11:43;39.50;;;20.40;;
50709;SDS011;37033;49.994;21.992;2023-12-20T14:14:13;33.60;;;18.30;;
50709;SDS011;37033;49.994;21.992;2023-12-20T14:16:44;45.20;;;21.90;;
50709;SDS011;37033;49.994;21.992;2023-12-20T14:19:16;43.10;;;22.70;;
50709;SDS011;37033;49.994;21.992;2023-12-20T14:21:47;37.10;;;18.00;;
50709;SDS011;37033;49.994;21.992;2023-12-20T14:24:17;35.30;;;19.10;;
50709;SDS011;37033;49.994;21.992;2023-12-20T14:26:48;34.10;;;18.10;;
50709;SDS011;37033;49.994;21.992;2023-12-20T14:29:19;38.80;;;19.40;;
50709;SDS011;37033;49.994;21.992;2023-12-20T14:31:49;37.20;;;20.10;;
50709;SDS011;37033;49.994;21.992;2023-12-20T14:34:20;39.40;;;19.70;;